Farmington ASC Data

Date Time Air Temperature Relative Humidity Dewpoint Windchill Heat Index Wind Speed Wind Dir. Rain Solar Radiation Soil Temperature
2m 2m 3m 3m 10cm
US/Mountain F % F F F MPH deg in MJ/m^2 F
max avg avg
2021-09-15 00:05:00 58.2 33.8 29.8 58.2 58.2 1.7 1.9 1.3 61.1 60.7 0.00 0.0000000 69.6
2021-09-15 00:10:00 58.5 34.3 30.5 58.5 58.5 3.3 4.0 2.4 103.3 85.2 0.00 0.0000000 69.5
2021-09-15 00:15:00 59.1 33.9 30.7 59.1 59.1 2.8 4.9 3.5 84.0 96.5 0.00 0.0000000 69.5
2021-09-15 00:20:00 58.6 34.5 30.7 58.6 58.6 2.8 4.7 3.3 91.6 78.1 0.00 0.0000000 69.4
2021-09-15 00:25:00 58.4 37.5 32.6 58.4 58.4 2.1 3.8 3.0 87.3 89.6 0.00 0.0000000 69.4
2021-09-15 00:30:00 58.2 36.9 32.0 58.2 58.2 3.0 3.3 2.3 88.1 71.1 0.00 0.0000000 69.3
2021-09-15 00:35:00 58.9 35.7 31.8 58.9 58.9 3.5 4.2 3.4 62.5 81.8 0.00 0.0000000 69.3
2021-09-15 00:40:00 58.6 36.3 31.9 58.6 58.6 3.0 3.8 3.0 84.0 82.6 0.00 0.0000000 69.2
2021-09-15 00:45:00 58.9 35.3 31.5 58.9 58.9 3.8 4.6 3.4 84.0 84.7 0.00 0.0000000 69.2
2021-09-15 00:50:00 58.8 35.5 31.6 58.8 58.8 2.4 4.7 3.2 86.1 91.2 0.00 0.0000000 69.1
2021-09-15 00:55:00 58.4 36.3 31.8 58.4 58.4 3.0 5.1 3.3 95.5 95.4 0.00 0.0000000 69.1
2021-09-15 01:00:00 58.4 35.9 31.5 58.4 58.4 3.1 4.9 3.5 99.7 95.6 0.00 0.0000000 69.0
2021-09-15 01:05:00 58.7 33.8 30.3 58.7 58.7 3.8 4.6 3.4 74.9 88.2 0.00 0.0000000 69.0
2021-09-15 01:10:00 60.2 31.9 30.2 60.2 60.2 3.5 5.5 4.3 99.8 100.7 0.00 0.0000000 69.0
2021-09-15 01:15:00 59.6 31.9 29.7 59.6 59.6 3.7 4.6 3.3 46.3 87.9 0.00 0.0000000 68.9
2021-09-15 01:20:00 58.9 33.1 29.9 58.9 58.9 4.4 4.4 3.2 81.8 88.0 0.00 0.0000000 68.9
2021-09-15 01:25:00 58.6 33.0 29.6 58.6 58.6 3.0 4.4 3.1 84.9 98.1 0.00 0.0000000 68.8
2021-09-15 01:30:00 57.8 33.4 29.2 57.8 57.8 3.8 3.8 3.2 78.1 85.0 0.00 0.0000000 68.8
2021-09-15 01:35:00 58.1 33.5 29.5 58.1 58.1 4.9 4.9 3.6 138.5 95.9 0.00 0.0000000 68.7
2021-09-15 01:40:00 57.7 35.0 30.2 57.7 57.7 3.0 4.6 3.1 116.1 91.7 0.00 0.0000000 68.7
2021-09-15 01:45:00 57.8 34.0 29.6 57.8 57.8 4.4 4.9 3.7 79.1 84.5 0.00 0.0000000 68.6
2021-09-15 01:50:00 57.7 35.4 30.5 57.7 57.7 3.3 3.7 3.0 74.5 86.5 0.00 0.0000000 68.6
2021-09-15 01:55:00 57.6 35.5 30.5 57.6 57.6 3.0 4.4 3.1 76.2 86.1 0.00 0.0000000 68.5
2021-09-15 02:00:00 57.2 34.4 29.4 57.2 57.2 2.6 3.5 2.7 66.3 78.4 0.00 0.0000000 68.5
2021-09-15 02:05:00 56.4 36.7 30.3 56.4 56.4 1.7 3.0 2.2 87.7 71.4 0.00 0.0000000 68.5
2021-09-15 02:10:00 55.7 36.0 29.1 55.7 55.7 2.4 3.7 2.5 66.5 62.5 0.00 0.0000000 68.4
2021-09-15 02:15:00 57.1 34.0 29.0 57.1 57.1 2.8 3.8 3.1 67.2 56.8 0.00 0.0000000 68.4
2021-09-15 02:20:00 56.7 34.4 28.9 56.7 56.7 2.8 2.8 2.0 73.5 77.7 0.00 0.0000000 68.3
2021-09-15 02:25:00 56.8 37.6 31.2 56.8 56.8 2.1 3.0 2.1 87.4 81.5 0.00 0.0000000 68.3
2021-09-15 02:30:00 55.9 40.3 32.1 55.9 55.9 1.9 2.2 1.9 75.5 82.7 0.00 0.0000000 68.2
2021-09-15 02:35:00 54.8 38.3 29.9 54.8 54.8 2.1 2.8 2.1 88.3 78.5 0.00 0.0000000 68.2
2021-09-15 02:40:00 54.5 37.5 29.0 54.5 54.5 2.2 2.6 2.1 83.6 81.7 0.00 0.0000000 68.1
2021-09-15 02:45:00 54.2 36.8 28.3 54.2 54.2 2.2 2.6 2.2 88.2 74.8 0.00 0.0000000 68.1
2021-09-15 02:50:00 54.7 36.9 28.9 54.7 54.7 2.4 2.6 2.1 67.4 70.2 0.00 0.0000000 68.1
2021-09-15 02:55:00 54.6 35.2 27.7 54.6 54.6 2.2 2.8 2.3 70.9 71.2 0.00 0.0000000 68.0
2021-09-15 03:00:00 54.5 34.4 26.9 54.5 54.5 1.5 2.6 2.0 87.3 81.0 0.00 0.0000000 67.9
2021-09-15 03:05:00 54.4 34.1 26.7 54.4 54.4 1.9 2.4 1.9 72.8 84.3 0.00 0.0000000 67.9
2021-09-15 03:10:00 54.4 33.9 26.5 54.4 54.4 2.6 2.8 2.4 77.3 68.6 0.00 0.0000000 67.8
2021-09-15 03:15:00 54.2 33.4 25.9 54.2 54.2 1.9 3.0 2.4 84.8 68.3 0.00 0.0000000 67.8
2021-09-15 03:20:00 54.3 32.1 25.1 54.3 54.3 2.4 2.4 2.1 106.1 86.6 0.00 0.0000000 67.7
2021-09-15 03:25:00 54.8 32.7 26.0 54.8 54.8 2.1 2.6 2.3 69.2 81.3 0.00 0.0000000 67.7
2021-09-15 03:30:00 54.2 32.1 25.1 54.2 54.2 2.4 3.3 2.9 59.5 62.6 0.00 0.0000000 67.6
2021-09-15 03:35:00 54.1 32.6 25.3 54.1 54.1 2.1 3.1 2.5 74.0 63.1 0.00 0.0000000 67.6
2021-09-15 03:40:00 53.6 32.8 25.0 53.6 53.6 2.6 2.8 2.3 61.7 65.2 0.00 0.0000000 67.5
2021-09-15 03:45:00 54.2 30.8 24.0 54.2 54.2 2.8 3.5 2.9 54.1 62.8 0.00 0.0000000 67.5
2021-09-15 03:50:00 54.4 31.3 24.6 54.4 54.4 1.9 3.0 2.3 83.3 70.5 0.00 0.0000000 67.4
2021-09-15 03:55:00 54.4 32.3 25.4 54.4 54.4 1.9 2.2 2.0 76.6 79.4 0.00 0.0000000 67.4
2021-09-15 04:00:00 53.6 34.2 26.1 53.6 53.6 1.7 2.1 1.7 97.2 83.6 0.00 0.0000000 67.4
2021-09-15 04:05:00 53.3 33.4 25.2 53.3 53.3 1.5 2.4 1.9 96.6 88.9 0.00 0.0000000 67.3
2021-09-15 04:10:00 54.6 31.0 24.5 54.6 54.6 1.7 3.0 1.9 60.8 69.7 0.00 0.0000000 67.2
2021-09-15 04:15:00 55.4 30.6 24.9 55.4 55.4 1.7 2.1 1.8 55.0 74.3 0.00 0.0000000 67.2
2021-09-15 04:20:00 55.7 31.5 25.8 55.7 55.7 2.1 2.2 1.7 40.7 70.7 0.00 0.0000000 67.1
2021-09-15 04:25:00 55.5 31.2 25.5 55.5 55.5 1.9 2.2 1.7 74.7 65.7 0.00 0.0000000 67.1
2021-09-15 04:30:00 55.7 31.5 25.9 55.7 55.7 1.7 3.1 2.3 108.4 67.0 0.00 0.0000000 67.1
2021-09-15 04:35:00 55.5 32.5 26.5 55.5 55.5 1.2 2.4 1.8 40.2 57.0 0.00 0.0000000 67.0
2021-09-15 04:40:00 55.2 33.7 27.1 55.2 55.2 2.1 3.0 2.0 51.8 46.6 0.00 0.0000000 67.0
2021-09-15 04:45:00 55.2 33.6 27.0 55.2 55.2 1.3 2.2 1.9 96.0 54.0 0.00 0.0000000 66.9
2021-09-15 04:50:00 55.0 34.1 27.2 55.0 55.0 2.1 2.8 1.8 106.8 73.2 0.00 0.0000000 66.8
2021-09-15 04:55:00 54.9 33.5 26.7 54.9 54.9 1.3 2.1 1.6 112.9 81.2 0.00 0.0000000 66.8
2021-09-15 05:00:00 55.6 33.6 27.3 55.6 55.6 1.2 2.2 1.9 90.4 113.3 0.00 0.0000000 66.8
2021-09-15 05:05:00 55.5 33.2 27.0 55.5 55.5 1.0 1.9 1.4 85.3 95.6 0.00 0.0000000 66.7
2021-09-15 05:10:00 55.2 33.9 27.3 55.2 55.2 1.7 1.9 1.3 70.1 88.8 0.00 0.0000000 66.7
2021-09-15 05:15:00 55.6 33.1 27.0 55.6 55.6 1.2 1.7 1.4 106.0 83.2 0.00 0.0000000 66.6
2021-09-15 05:20:00 55.6 34.3 27.9 55.6 55.6 1.3 1.9 1.3 75.6 79.7 0.00 0.0000000 66.6
2021-09-15 05:25:00 55.6 34.1 27.7 55.6 55.6 1.2 1.5 1.2 85.9 92.0 0.00 0.0000000 66.5
2021-09-15 05:30:00 56.0 37.2 30.2 56.0 56.0 2.4 2.6 1.5 120.2 125.1 0.00 0.0000000 66.5
2021-09-15 05:35:00 56.3 34.9 28.9 56.3 56.3 1.5 2.6 1.9 103.9 105.6 0.00 0.0000000 66.4
2021-09-15 05:40:00 56.0 34.9 28.6 56.0 56.0 1.7 2.8 1.7 167.9 109.1 0.00 0.0000000 66.4
2021-09-15 05:45:00 56.3 34.7 28.7 56.3 56.3 2.1 3.5 1.9 306.4 64.3 0.00 0.0000000 66.3
2021-09-15 05:50:00 56.9 32.9 28.0 56.9 56.9 2.2 2.4 1.8 72.1 25.1 0.00 0.0000000 66.3
2021-09-15 05:55:00 57.2 32.7 28.1 57.2 57.2 1.7 3.1 2.0 108.0 51.9 0.00 0.0000000 66.3
2021-09-15 06:00:00 57.2 33.1 28.4 57.2 57.2 1.7 3.0 2.0 154.2 62.2 0.00 0.0000000 66.2
2021-09-15 06:05:00 57.0 33.8 28.7 57.0 57.0 3.3 3.3 1.9 75.6 56.7 0.00 0.0000000 66.2
2021-09-15 06:10:00 57.4 31.7 27.5 57.4 57.4 1.3 3.3 2.1 140.1 83.8 0.00 0.0000000 66.1
2021-09-15 06:15:00 57.2 33.0 28.3 57.2 57.2 2.1 3.1 1.8 36.6 78.1 0.00 0.0000000 66.1
2021-09-15 06:20:00 57.1 32.9 28.1 57.1 57.1 1.2 2.6 1.9 306.3 38.8 0.00 0.0000000 66.1
2021-09-15 06:25:00 57.1 32.9 28.2 57.1 57.1 1.3 1.9 1.5 285.1 215.1 0.00 0.0000000 66.1
2021-09-15 06:30:00 53.9 43.6 32.3 53.9 53.9 3.8 4.9 3.3 248.9 249.1 0.00 0.0000000 66.0
2021-09-15 06:35:00 49.9 54.6 34.2 49.9 49.9 2.1 5.1 3.9 161.8 234.8 0.00 0.0000000 66.0
2021-09-15 06:40:00 49.7 55.9 34.6 49.7 49.7 1.7 4.4 2.2 181.2 162.8 0.00 0.0000000 65.9
2021-09-15 06:45:00 51.0 50.2 33.1 51.0 51.0 1.7 2.6 1.9 152.9 190.1 0.00 0.0010000 65.9
2021-09-15 06:50:00 49.6 57.3 35.1 49.6 49.6 2.4 3.7 2.4 256.9 268.6 0.00 0.0020000 65.8
2021-09-15 06:55:00 50.3 51.5 33.1 50.3 50.3 1.7 3.1 2.1 102.6 266.2 0.00 0.0040000 65.8
2021-09-15 07:00:00 50.8 51.5 33.6 50.8 50.8 2.4 3.1 2.3 193.9 166.5 0.00 0.0060000 65.8
2021-09-15 07:05:00 50.1 55.1 34.6 50.1 50.1 1.9 3.3 2.3 230.4 219.0 0.00 0.0080000 65.8
2021-09-15 07:10:00 50.8 49.1 32.4 50.8 50.8 2.2 2.8 1.6 155.2 209.5 0.00 0.0110000 65.7
2021-09-15 07:15:00 54.9 40.8 31.5 54.9 54.9 1.5 3.7 2.6 47.8 93.5 0.00 0.0130000 65.7
2021-09-15 07:20:00 55.9 39.6 31.7 55.9 55.9 1.7 3.8 1.8 166.9 116.6 0.00 0.0140000 65.6
2021-09-15 07:25:00 56.9 38.0 31.6 56.9 56.9 2.1 5.1 2.6 40.0 146.2 0.00 0.0160000 65.6
2021-09-15 07:30:00 57.4 37.5 31.7 57.4 57.4 1.2 3.3 1.7 117.8 137.7 0.00 0.0180000 65.6
2021-09-15 07:35:00 58.1 37.4 32.3 58.1 58.1 2.8 3.8 2.1 110.7 93.4 0.00 0.0210000 65.6
2021-09-15 07:40:00 59.0 37.4 33.0 59.0 59.0 2.2 6.2 2.8 152.4 102.7 0.00 0.0340000 65.5
2021-09-15 07:45:00 60.2 35.6 32.9 60.2 60.2 3.1 5.3 3.6 89.1 98.6 0.00 0.0580000 65.5
2021-09-15 07:50:00 61.1 34.3 32.7 61.1 61.1 2.6 6.9 3.5 176.9 112.7 0.00 0.1370000 65.5
2021-09-15 07:55:00 61.6 33.5 32.6 61.6 61.6 3.8 6.0 3.4 176.7 103.4 0.00 0.1520000 65.5
2021-09-15 08:00:00 62.4 33.1 33.0 62.4 62.4 4.0 5.3 3.4 65.0 102.6 0.00 0.1680000 65.4
2021-09-15 08:05:00 63.4 31.6 32.7 63.4 63.4 2.2 4.4 3.0 104.0 100.3 0.00 0.1830000 65.4
2021-09-15 08:10:00 64.0 30.0 31.9 64.0 64.0 3.7 5.6 3.4 124.3 96.6 0.00 0.1990000 65.4
2021-09-15 08:15:00 64.7 31.8 34.0 64.7 64.7 4.7 5.6 3.6 94.1 103.8 0.00 0.2140000 65.4
2021-09-15 08:20:00 65.2 28.8 31.9 65.2 65.2 3.7 4.4 3.3 56.6 88.6 0.00 0.2300000 65.4
2021-09-15 08:25:00 65.8 29.1 32.7 65.8 65.8 3.8 5.8 3.9 220.1 90.8 0.00 0.2480000 65.4
2021-09-15 08:30:00 65.8 29.6 33.1 65.8 65.8 2.8 6.5 3.6 87.1 101.5 0.00 0.2620000 65.4
2021-09-15 08:35:00 66.4 28.1 32.3 66.4 66.4 2.6 5.6 4.1 255.3 98.0 0.00 0.2780000 65.4
2021-09-15 08:40:00 66.7 26.7 31.4 66.7 66.7 3.7 5.8 3.6 340.1 85.4 0.00 0.2950000 65.4
2021-09-15 08:45:00 67.2 26.1 31.2 67.2 67.2 4.7 5.5 3.9 133.1 117.9 0.00 0.3110000 65.4
2021-09-15 08:50:00 67.7 25.6 31.2 67.7 67.7 3.1 6.0 4.2 93.6 108.7 0.00 0.3270000 65.4
2021-09-15 08:55:00 69.0 25.5 32.2 69.0 69.0 3.0 5.6 3.4 72.2 93.6 0.00 0.3420000 65.4
2021-09-15 09:00:00 69.2 24.6 31.5 69.2 69.2 4.2 5.3 3.8 108.9 98.8 0.00 0.3570000 65.4
2021-09-15 09:05:00 69.7 24.4 31.8 69.7 69.7 5.1 6.0 3.8 101.8 101.5 0.00 0.3730000 65.5
2021-09-15 09:10:00 70.0 26.2 33.7 70.0 70.0 3.5 6.0 4.0 48.7 101.2 0.00 0.3900000 65.5
2021-09-15 09:15:00 70.6 23.8 31.9 70.6 70.6 6.2 6.2 3.6 58.3 106.8 0.00 0.4050000 65.6
2021-09-15 09:20:00 70.5 26.8 34.7 70.5 70.5 2.4 5.8 3.8 119.0 90.1 0.00 0.4190000 65.6
2021-09-15 09:25:00 71.2 25.6 34.2 71.2 71.2 3.7 5.8 3.4 43.7 58.6 0.00 0.4350000 65.6
2021-09-15 09:30:00 71.1 26.1 34.6 71.1 71.1 3.7 5.5 3.4 24.6 70.7 0.00 0.4520000 65.7
2021-09-15 09:35:00 71.1 25.5 34.0 71.1 71.1 3.1 6.3 4.0 84.7 100.4 0.00 0.4630000 65.7
2021-09-15 09:40:00 72.0 26.9 36.1 72.0 72.0 2.6 7.1 3.6 118.4 100.2 0.00 0.4780000 65.8
2021-09-15 09:45:00 72.2 23.9 33.3 72.2 72.2 3.3 5.3 3.8 67.5 110.0 0.00 0.4900000 65.8
2021-09-15 09:50:00 72.3 25.8 35.3 72.3 72.3 3.3 6.0 3.9 339.3 86.8 0.00 0.5040000 65.9
2021-09-15 09:55:00 73.0 26.4 36.5 73.0 73.0 2.4 5.1 3.0 99.4 39.2 0.00 0.5210000 66.0
2021-09-15 10:00:00 73.7 21.1 31.5 73.7 73.7 4.4 7.1 4.2 104.4 108.3 0.00 0.5340000 66.0
2021-09-15 10:05:00 74.4 22.6 33.7 74.4 74.4 3.5 5.1 3.0 31.5 87.5 0.00 0.5500000 66.1
2021-09-15 10:10:00 73.5 20.4 30.4 73.5 73.5 5.1 6.2 4.7 127.1 123.7 0.00 0.5600000 66.2
2021-09-15 10:15:00 74.1 19.2 29.4 74.1 74.1 1.9 5.5 3.4 228.9 133.9 0.00 0.5740000 66.2
2021-09-15 10:20:00 74.6 19.5 30.3 74.6 74.6 2.2 4.0 2.6 45.0 136.2 0.00 0.5860000 66.3
2021-09-15 10:25:00 74.8 20.4 31.6 74.8 74.8 4.6 5.8 4.3 144.2 143.7 0.00 0.5950000 66.4
2021-09-15 10:30:00 74.8 20.7 31.9 74.8 74.8 4.9 6.7 5.1 154.3 145.4 0.00 0.6070000 66.5
2021-09-15 10:35:00 74.8 20.4 31.5 74.8 74.8 4.9 7.1 4.8 158.6 158.3 0.00 0.6170000 66.6
2021-09-15 10:40:00 74.9 21.3 32.7 74.9 74.9 4.9 7.4 5.6 212.3 183.9 0.00 0.6290000 66.7
2021-09-15 10:45:00 75.0 21.5 33.0 75.0 75.0 5.5 6.5 5.4 203.4 189.9 0.00 0.6390000 66.8
2021-09-15 10:50:00 75.9 19.8 31.7 75.9 75.9 3.1 7.1 4.8 216.6 184.1 0.00 0.6500000 66.9
2021-09-15 10:55:00 75.8 20.4 32.3 75.8 75.8 3.0 6.7 4.0 176.1 172.8 0.00 0.6600000 67.0
2021-09-15 11:00:00 76.2 21.6 34.2 76.2 76.2 3.0 6.9 3.7 179.4 196.2 0.00 0.6700000 67.1
2021-09-15 11:05:00 76.4 25.4 38.4 76.4 76.4 2.6 4.9 3.3 218.8 190.3 0.00 0.6800000 67.2
2021-09-15 11:10:00 77.1 26.4 39.9 77.1 77.1 2.6 3.3 2.3 5.3 31.7 0.00 0.6900000 67.2
2021-09-15 11:15:00 77.3 19.2 32.1 77.3 77.3 3.1 4.0 2.4 180.0 358.2 0.00 0.6980000 67.4
2021-09-15 11:20:00 77.6 21.7 35.4 77.6 77.6 3.0 4.2 3.1 289.1 205.2 0.00 0.7060000 67.4
2021-09-15 11:25:00 78.5 21.7 36.2 78.5 78.5 1.5 2.6 2.0 149.7 4.5 0.00 0.7130000 67.5
2021-09-15 11:30:00 79.0 20.6 35.2 79.0 79.0 2.2 4.2 2.3 261.6 241.5 0.00 0.7230000 67.6
2021-09-15 11:35:00 78.0 19.3 32.8 78.0 78.0 4.7 4.9 3.4 49.0 345.5 0.00 0.7090000 67.8
2021-09-15 11:40:00 77.6 24.1 38.0 77.6 77.6 2.8 5.3 3.5 7.2 24.0 0.00 0.7350000 67.9
2021-09-15 11:45:00 78.1 18.9 32.4 78.1 78.1 4.9 4.9 3.0 5.1 12.1 0.00 0.7430000 68.0
2021-09-15 11:50:00 78.5 22.9 37.5 78.5 78.5 2.6 5.3 3.4 8.0 17.7 0.00 0.7490000 68.1
2021-09-15 11:55:00 78.2 20.6 34.6 78.2 78.2 4.4 5.5 3.8 12.9 354.9 0.00 0.7540000 68.3
2021-09-15 12:00:00 78.1 22.6 36.8 78.1 78.1 3.0 5.8 3.6 343.7 349.2 0.00 0.7590000 68.4
2021-09-15 12:05:00 78.2 19.7 33.4 78.2 78.2 2.4 4.9 3.6 0.8 341.2 0.00 0.7650000 68.5
2021-09-15 12:10:00 78.7 19.2 33.2 78.7 78.7 3.8 4.9 2.9 2.5 344.8 0.00 0.7700000 68.6
2021-09-15 12:15:00 80.0 18.9 33.9 80.0 80.0 4.9 4.9 2.4 320.1 0.8 0.00 0.7740000 68.8
2021-09-15 12:20:00 79.3 16.9 30.6 79.3 79.3 3.7 5.8 3.7 11.2 332.3 0.00 0.7770000 68.9
2021-09-15 12:25:00 79.8 19.6 34.7 79.8 79.8 2.2 4.4 3.1 28.9 3.4 0.00 0.7810000 69.1
2021-09-15 12:30:00 79.8 25.8 41.6 79.8 79.8 3.1 5.5 3.8 334.5 13.8 0.00 0.7890000 69.2
2021-09-15 12:35:00 80.5 20.1 36.0 80.5 80.5 4.0 4.6 3.2 326.6 11.3 0.00 0.7920000 69.3
2021-09-15 12:40:00 80.4 17.5 32.3 80.4 80.4 1.9 5.3 3.0 78.8 313.3 0.00 0.7940000 69.5
2021-09-15 12:45:00 80.4 22.9 39.1 80.4 80.4 5.3 6.3 3.7 21.3 354.8 0.00 0.7950000 69.6
2021-09-15 12:50:00 80.1 27.5 43.6 80.1 80.1 2.8 7.4 4.6 310.7 334.5 0.00 0.7950000 69.7
2021-09-15 12:55:00 79.9 22.4 38.1 79.9 79.9 4.4 6.5 4.6 329.0 320.5 0.00 0.7960000 69.9
2021-09-15 13:00:00 80.3 20.9 36.6 80.3 80.3 4.7 5.1 3.7 0.1 356.9 0.00 0.7960000 70.0
2021-09-15 13:05:00 81.0 21.3 37.8 81.0 81.0 1.9 6.0 3.3 75.5 355.5 0.00 0.7970000 70.1
2021-09-15 13:10:00 82.6 21.7 39.5 82.6 82.6 3.0 4.2 2.4 294.2 333.0 0.00 0.7980000 70.3
2021-09-15 13:15:00 82.4 19.9 37.1 82.4 82.4 6.2 6.3 3.5 283.9 274.3 0.00 0.7980000 70.4
2021-09-15 13:20:00 81.3 21.6 38.4 81.3 81.3 2.1 7.6 4.7 19.8 280.6 0.00 0.7930000 70.5
2021-09-15 13:25:00 81.3 20.0 36.4 81.3 81.3 4.2 5.1 3.5 306.0 313.9 0.00 0.7930000 70.6
2021-09-15 13:30:00 82.1 15.4 30.5 82.1 82.1 4.7 5.1 3.0 281.4 343.1 0.00 0.7930000 70.8
2021-09-15 13:35:00 81.6 23.4 40.7 81.6 81.6 4.2 7.2 4.3 304.9 276.2 0.00 0.7910000 70.9
2021-09-15 13:40:00 82.3 17.1 33.3 82.3 82.3 5.3 5.3 3.0 236.6 325.6 0.00 0.7880000 71.0
2021-09-15 13:45:00 82.0 17.6 33.7 82.0 82.0 4.6 8.0 4.7 303.0 258.4 0.00 0.7830000 71.1
2021-09-15 13:50:00 82.4 16.6 32.7 82.4 82.4 4.7 6.5 3.4 319.6 324.1 0.00 0.7810000 71.3
2021-09-15 13:55:00 82.6 18.1 35.0 82.6 82.6 3.3 5.3 3.2 282.6 323.6 0.00 0.7800000 71.4
2021-09-15 14:00:00 82.9 19.3 36.8 82.9 82.9 5.6 7.4 5.0 287.8 268.6 0.00 0.7750000 71.5
2021-09-15 14:05:00 83.5 13.9 29.0 83.5 83.5 5.3 9.2 5.7 207.1 238.7 0.00 0.7700000 71.6
2021-09-15 14:10:00 83.1 21.4 39.6 83.1 83.1 4.4 10.8 6.3 222.5 248.1 0.00 0.7650000 71.7
2021-09-15 14:15:00 83.7 17.8 35.4 83.7 83.7 6.3 9.4 5.6 285.1 245.2 0.00 0.7600000 71.8
2021-09-15 14:20:00 83.3 18.3 35.8 83.3 83.3 3.5 7.8 4.9 223.4 282.4 0.00 0.7530000 71.9
2021-09-15 14:25:00 83.2 18.0 35.2 83.2 83.2 3.5 7.8 5.0 35.5 282.6 0.00 0.7500000 72.1
2021-09-15 14:30:00 83.4 14.3 29.7 83.4 83.4 3.0 6.5 3.9 297.4 284.0 0.00 0.7440000 72.1
2021-09-15 14:35:00 84.5 14.2 30.4 84.5 84.5 6.0 8.7 3.2 14.0 325.3 0.00 0.7370000 72.2
2021-09-15 14:40:00 83.8 16.0 32.8 83.8 83.8 7.4 8.8 5.2 261.3 297.2 0.00 0.7320000 72.3
2021-09-15 14:45:00 83.4 13.6 28.5 83.4 83.4 4.4 9.7 6.1 327.2 284.1 0.00 0.7260000 72.4
2021-09-15 14:50:00 84.2 12.8 27.6 84.2 84.2 2.6 6.7 3.3 49.8 319.8 0.00 0.7140000 72.5
2021-09-15 14:55:00 84.1 13.5 28.8 84.1 84.1 3.3 6.5 4.1 335.1 331.0 0.00 0.7060000 72.6
2021-09-15 15:00:00 83.9 16.1 33.1 83.9 83.9 4.6 6.5 4.0 285.0 332.7 0.00 0.6980000 72.7
2021-09-15 15:05:00 83.8 18.0 35.8 83.8 83.8 3.0 7.6 5.1 116.6 307.3 0.00 0.6910000 72.8
2021-09-15 15:10:00 83.5 21.5 40.1 83.5 83.5 3.1 7.8 4.3 321.7 323.1 0.00 0.6810000 72.9
2021-09-15 15:15:00 83.8 15.0 31.3 83.8 83.8 7.6 9.2 4.7 312.9 312.1 0.00 0.6690000 73.0
2021-09-15 15:20:00 83.0 14.6 29.9 83.0 83.0 5.6 9.9 6.3 16.6 341.3 0.00 0.6610000 73.0
2021-09-15 15:25:00 84.3 19.2 37.8 84.3 84.3 3.5 5.1 3.5 247.5 297.5 0.00 0.6520000 73.1
2021-09-15 15:30:00 84.0 13.6 29.0 84.0 84.0 7.1 13.9 6.8 280.1 312.4 0.00 0.6410000 73.1
2021-09-15 15:35:00 84.1 16.5 33.8 84.1 84.1 5.6 13.0 5.5 262.8 293.8 0.00 0.6340000 73.2
2021-09-15 15:40:00 84.3 12.6 27.3 84.3 84.3 4.9 10.3 6.5 232.0 273.9 0.00 0.6220000 73.3
2021-09-15 15:45:00 84.5 14.1 30.2 84.5 84.5 4.6 8.1 6.1 254.5 273.7 0.00 0.6120000 73.3
2021-09-15 15:50:00 84.6 16.9 34.8 84.6 84.6 2.1 8.7 5.0 20.4 304.7 0.00 0.6000000 73.3
2021-09-15 15:55:00 84.8 13.4 29.1 84.8 84.8 6.7 8.1 4.6 317.1 296.5 0.00 0.5880000 73.4
2021-09-15 16:00:00 84.6 11.6 25.5 84.6 84.6 5.8 7.4 5.1 286.4 311.8 0.00 0.5760000 73.4
2021-09-15 16:05:00 84.9 15.5 32.9 84.9 84.9 7.2 8.3 5.6 314.3 305.2 0.00 0.5620000 73.5
2021-09-15 16:10:00 84.6 15.9 33.4 84.6 84.6 6.9 8.1 4.6 301.5 286.9 0.00 0.5500000 73.5
2021-09-15 16:15:00 84.6 16.7 34.6 84.6 84.6 1.9 8.8 5.4 303.7 297.6 0.00 0.5370000 73.5
2021-09-15 16:20:00 84.9 13.6 29.6 84.9 84.9 5.1 6.2 3.8 265.6 321.0 0.00 0.5250000 73.6
2021-09-15 16:25:00 84.7 13.9 30.1 84.7 84.7 7.1 7.4 5.4 290.8 301.6 0.00 0.5080000 73.6
2021-09-15 16:30:00 84.6 12.8 27.9 84.6 84.6 6.7 8.3 6.5 298.2 292.4 0.00 0.4960000 73.6
2021-09-15 16:35:00 84.6 13.3 28.9 84.6 84.6 4.9 7.6 4.4 279.9 305.4 0.00 0.4830000 73.6
2021-09-15 16:40:00 84.7 14.6 31.3 84.7 84.7 5.1 7.1 5.2 303.5 275.7 0.00 0.4680000 73.7
2021-09-15 16:45:00 84.2 15.1 31.7 84.2 84.2 6.5 8.7 5.7 287.1 309.5 0.00 0.4560000 73.7
2021-09-15 16:50:00 84.1 12.0 26.0 84.1 84.1 8.8 12.8 8.0 295.6 293.9 0.00 0.4390000 73.7
2021-09-15 16:55:00 84.2 11.9 25.8 84.2 84.2 8.0 9.7 7.2 280.1 304.2 0.00 0.4270000 73.7
2021-09-15 17:00:00 84.6 13.3 28.9 84.6 84.6 4.9 7.6 5.6 299.6 291.4 0.00 0.4100000 73.7
2021-09-15 17:05:00 84.3 16.0 33.3 84.3 84.3 4.0 7.2 4.8 313.3 327.0 0.00 0.3950000 73.7
2021-09-15 17:10:00 84.3 12.7 27.6 84.3 84.3 4.7 8.0 5.5 324.6 317.9 0.00 0.3800000 73.7
2021-09-15 17:15:00 84.4 14.3 30.5 84.4 84.4 7.2 9.0 5.8 297.8 295.4 0.00 0.3630000 73.7
2021-09-15 17:20:00 84.2 14.4 30.5 84.2 84.2 3.8 9.0 6.0 296.1 298.8 0.00 0.3480000 73.7
2021-09-15 17:25:00 84.0 14.3 30.2 84.0 84.0 3.0 9.4 5.7 308.1 277.4 0.00 0.3320000 73.7
2021-09-15 17:30:00 83.9 14.4 30.4 83.9 83.9 4.6 7.4 4.0 310.4 331.7 0.00 0.3160000 73.7
2021-09-15 17:35:00 83.7 14.0 29.4 83.7 83.7 4.2 8.3 5.7 281.8 296.3 0.00 0.3020000 73.7
2021-09-15 17:40:00 83.8 14.4 30.3 83.8 83.8 3.0 9.0 6.5 232.4 315.9 0.00 0.2850000 73.6
2021-09-15 17:45:00 83.9 14.5 30.5 83.9 83.9 5.5 7.4 4.0 282.4 318.1 0.00 0.2710000 73.6
2021-09-15 17:50:00 83.7 12.6 26.9 83.7 83.7 3.5 8.3 5.0 269.0 303.7 0.00 0.2540000 73.6
2021-09-15 17:55:00 84.0 13.4 28.6 84.0 84.0 5.8 8.0 4.7 319.4 291.9 0.00 0.2390000 73.5
2021-09-15 18:00:00 83.7 14.1 29.6 83.7 83.7 3.7 9.6 5.5 257.6 286.7 0.00 0.2240000 73.6
2021-09-15 18:05:00 83.3 12.7 26.8 83.3 83.3 7.4 8.8 5.7 274.9 275.6 0.00 0.2080000 73.5
2021-09-15 18:10:00 83.6 13.9 29.2 83.6 83.6 3.3 7.6 4.6 268.7 284.1 0.00 0.1910000 73.5
2021-09-15 18:15:00 83.5 12.1 25.8 83.5 83.5 4.9 7.4 4.9 281.7 287.8 0.00 0.1760000 73.4
2021-09-15 18:20:00 83.4 13.4 28.1 83.4 83.4 4.9 6.7 4.6 277.8 296.5 0.00 0.1600000 73.4
2021-09-15 18:25:00 83.0 14.0 28.9 83.0 83.0 3.0 6.0 4.6 283.3 301.5 0.00 0.1450000 73.3
2021-09-15 18:30:00 82.6 15.3 30.7 82.6 82.6 3.5 6.9 4.3 268.8 292.2 0.00 0.1310000 73.3
2021-09-15 18:35:00 82.6 13.5 27.7 82.6 82.6 2.6 6.0 3.8 325.5 294.3 0.00 0.1140000 73.3
2021-09-15 18:40:00 82.8 16.2 32.3 82.8 82.8 1.9 4.0 2.3 300.2 299.0 0.00 0.0960000 73.2
2021-09-15 18:45:00 82.1 15.3 30.4 82.1 82.1 1.9 3.0 2.1 344.9 352.4 0.00 0.0770000 73.2
2021-09-15 18:50:00 81.5 15.9 30.9 81.5 81.5 2.6 3.1 2.2 3.9 344.5 0.00 0.0600000 73.1
2021-09-15 18:55:00 80.5 15.1 28.7 80.5 80.5 4.2 4.2 2.9 326.2 346.1 0.00 0.0440000 73.0
2021-09-15 19:00:00 80.0 16.0 29.8 80.0 80.0 2.4 3.8 3.1 328.4 344.2 0.00 0.0310000 73.0
2021-09-15 19:05:00 79.6 15.8 29.2 79.6 79.6 2.1 7.8 3.8 343.1 333.9 0.00 0.0210000 73.0
2021-09-15 19:10:00 78.9 16.2 29.3 78.9 78.9 2.1 3.5 2.4 11.6 334.3 0.00 0.0110000 72.9
2021-09-15 19:15:00 78.0 16.7 29.2 78.0 78.0 2.1 2.6 2.0 32.7 0.1 0.00 0.0070000 72.8
2021-09-15 19:20:00 77.3 17.5 29.8 77.3 77.3 2.2 2.8 2.4 14.7 357.3 0.00 0.0040000 72.7
2021-09-15 19:25:00 76.4 17.5 29.0 76.4 76.4 1.5 2.2 1.6 1.2 358.3 0.00 0.0030000 72.6
2021-09-15 19:30:00 76.3 16.8 28.0 76.3 76.3 1.9 4.6 2.2 344.3 335.9 0.00 0.0010000 72.6
2021-09-15 19:35:00 75.5 17.1 27.8 75.5 75.5 1.5 2.6 1.9 13.7 354.7 0.00 0.0010000 72.5
2021-09-15 19:40:00 75.1 18.0 28.7 75.1 75.1 1.7 2.1 1.6 8.3 14.0 0.00 0.0000000 72.4
2021-09-15 19:45:00 74.7 17.6 27.8 74.7 74.7 2.1 2.6 2.0 10.4 8.5 0.00 0.0000000 72.3
2021-09-15 19:50:00 74.4 17.6 27.6 74.4 74.4 2.4 3.5 2.4 330.3 357.0 0.00 0.0000000 72.2
2021-09-15 19:55:00 74.0 18.7 28.8 74.0 74.0 1.5 2.8 2.0 27.5 355.0 0.00 0.0000000 72.2
2021-09-15 20:00:00 72.8 17.5 26.2 72.8 72.8 1.7 2.4 1.9 50.9 22.2 0.00 0.0000000 72.1
2021-09-15 20:05:00 70.6 18.5 25.7 70.6 70.6 2.2 2.2 2.0 59.5 39.9 0.00 0.0000000 72.0
2021-09-15 20:10:00 69.2 19.5 25.7 69.2 69.2 2.4 2.8 2.3 51.9 48.9 0.00 0.0000000 71.9
2021-09-15 20:15:00 68.6 19.0 24.7 68.6 68.6 2.8 3.0 2.6 47.9 51.8 0.00 0.0000000 71.8
2021-09-15 20:20:00 69.0 18.7 24.6 69.0 69.0 2.2 2.6 2.4 60.9 63.0 0.00 0.0000000 71.7
2021-09-15 20:25:00 69.8 18.2 24.6 69.8 69.8 2.6 3.1 2.5 71.7 62.5 0.00 0.0000000 71.7
2021-09-15 20:30:00 68.9 18.7 24.6 68.9 68.9 2.6 2.8 2.5 76.7 71.1 0.00 0.0000000 71.6
2021-09-15 20:35:00 68.8 18.6 24.3 68.8 68.8 2.6 2.8 2.5 90.7 74.5 0.00 0.0000000 71.5
2021-09-15 20:40:00 69.0 19.2 25.2 69.0 69.0 2.4 2.8 2.5 107.7 83.3 0.00 0.0000000 71.4
2021-09-15 20:45:00 67.7 20.4 25.6 67.7 67.7 2.6 3.0 2.7 101.6 100.5 0.00 0.0000000 71.3
2021-09-15 20:50:00 67.5 20.6 25.7 67.5 67.5 3.1 3.1 2.8 97.3 104.7 0.00 0.0000000 71.3
2021-09-15 20:55:00 68.2 19.6 25.0 68.2 68.2 2.8 3.1 2.9 90.8 96.9 0.00 0.0000000 71.2
2021-09-15 21:00:00 67.4 20.4 25.3 67.4 67.4 2.6 3.3 2.8 85.1 90.4 0.00 0.0000000 71.1
2021-09-15 21:05:00 65.0 21.4 24.6 65.0 65.0 2.1 3.0 2.6 78.9 90.7 0.00 0.0000000 71.0
2021-09-15 21:10:00 64.1 21.3 23.7 64.1 64.1 2.4 2.6 2.4 84.4 82.1 0.00 0.0000000 71.0
2021-09-15 21:15:00 64.0 21.5 23.8 64.0 64.0 2.8 3.0 2.7 82.3 81.4 0.00 0.0000000 70.9
2021-09-15 21:20:00 63.1 22.4 24.0 63.1 63.1 2.6 3.1 2.7 84.9 81.5 0.00 0.0000000 70.8
2021-09-15 21:25:00 63.1 21.9 23.6 63.1 63.1 2.6 2.8 2.7 84.7 83.8 0.00 0.0000000 70.8
2021-09-15 21:30:00 62.7 22.5 23.9 62.7 62.7 2.4 3.0 2.6 75.9 82.2 0.00 0.0000000 70.7
2021-09-15 21:35:00 63.1 21.0 22.5 63.1 63.1 2.8 3.3 2.8 76.1 77.4 0.00 0.0000000 70.6
2021-09-15 21:40:00 64.0 19.6 21.6 64.0 64.0 3.3 3.7 3.3 72.4 74.6 0.00 0.0000000 70.6
2021-09-15 21:45:00 65.1 19.0 21.7 65.1 65.1 3.3 3.5 3.0 75.3 76.1 0.00 0.0000000 70.5
2021-09-15 21:50:00 64.9 19.4 22.1 64.9 64.9 3.0 3.3 3.0 81.5 78.7 0.00 0.0000000 70.4
2021-09-15 21:55:00 64.6 19.3 21.8 64.6 64.6 3.0 3.3 3.2 74.8 76.0 0.00 0.0000000 70.4
2021-09-15 22:00:00 65.4 18.9 21.8 65.4 65.4 2.4 3.1 2.6 80.3 79.1 0.00 0.0000000 70.3
2021-09-15 22:05:00 64.5 22.5 25.3 64.5 64.5 3.1 3.1 2.6 99.3 93.6 0.00 0.0000000 70.2
2021-09-15 22:10:00 64.8 21.9 25.0 64.8 64.8 3.1 3.7 2.9 125.3 112.2 0.00 0.0000000 70.1
2021-09-15 22:15:00 62.6 21.3 22.4 62.6 62.6 3.1 4.2 3.1 82.8 77.4 0.00 0.0000000 70.1
2021-09-15 22:20:00 61.6 22.1 22.5 61.6 61.6 3.0 3.8 3.3 64.0 75.6 0.00 0.0000000 70.0
2021-09-15 22:25:00 60.5 23.1 22.7 60.5 60.5 3.3 3.5 3.1 79.7 76.2 0.00 0.0000000 70.0
2021-09-15 22:30:00 60.5 23.0 22.5 60.5 60.5 3.3 3.8 3.2 82.6 75.8 0.00 0.0000000 69.9
2021-09-15 22:35:00 60.4 23.3 22.7 60.4 60.4 2.8 3.7 3.3 62.4 69.2 0.00 0.0000000 69.8
2021-09-15 22:40:00 59.6 24.3 23.0 59.6 59.6 2.8 3.1 2.6 66.4 69.0 0.00 0.0000000 69.7
2021-09-15 22:45:00 59.8 23.6 22.4 59.8 59.8 3.1 3.1 2.9 78.0 75.9 0.00 0.0000000 69.7
2021-09-15 22:50:00 59.5 23.4 22.0 59.5 59.5 3.1 3.5 2.9 78.6 70.7 0.00 0.0000000 69.6
2021-09-15 22:55:00 59.1 24.3 22.5 59.1 59.1 2.2 3.0 2.4 78.5 72.5 0.00 0.0000000 69.6
2021-09-15 23:00:00 58.9 25.2 23.3 58.9 58.9 2.2 2.8 2.3 71.1 73.2 0.00 0.0000000 69.5
2021-09-15 23:05:00 58.8 25.1 23.1 58.8 58.8 2.8 3.1 2.5 64.4 72.5 0.00 0.0000000 69.5
2021-09-15 23:10:00 58.8 24.3 22.3 58.8 58.8 2.4 3.5 2.8 71.0 71.6 0.00 0.0000000 69.4
2021-09-15 23:15:00 58.6 25.7 23.5 58.6 58.6 1.9 2.8 2.1 89.8 78.6 0.00 0.0000000 69.4
2021-09-15 23:20:00 59.0 24.6 22.8 59.0 59.0 2.8 3.0 2.3 80.2 82.2 0.00 0.0000000 69.3
2021-09-15 23:25:00 59.1 23.7 22.0 59.1 59.1 2.4 3.3 2.9 79.8 76.8 0.00 0.0000000 69.2
2021-09-15 23:30:00 59.1 24.2 22.5 59.1 59.1 3.0 4.2 3.2 63.1 74.0 0.00 0.0000000 69.2
2021-09-15 23:35:00 59.0 23.7 21.9 59.0 59.0 4.0 4.0 3.4 67.4 62.3 0.00 0.0000000 69.1
2021-09-15 23:40:00 59.1 23.0 21.3 59.1 59.1 2.2 4.2 3.2 76.0 72.6 0.00 0.0000000 69.1
2021-09-15 23:45:00 59.0 24.4 22.5 59.0 59.0 2.8 3.1 2.4 86.1 78.4 0.00 0.0000000 69.0
2021-09-15 23:50:00 60.0 23.5 22.5 60.0 60.0 2.1 3.3 2.6 87.0 82.5 0.00 0.0000000 69.0
2021-09-15 23:55:00 58.6 25.9 23.7 58.6 58.6 1.0 2.2 1.6 60.7 70.8 0.00 0.0000000 68.9
2021-09-16 00:00:00 59.7 25.3 24.1 59.7 59.7 1.0 1.0 0.5 65.8 71.4 0.00 0.0000000 68.8

Data is courtesy of the NM Climate Center. DO NOT USE IN LEGAL PROCEEDINGS.